createdAt,value
2017-11-12T00:00:45.727Z,20.73
2017-11-12T00:03:12.309Z,19.47
2017-11-12T00:05:38.998Z,19.17
2017-11-12T00:08:05.711Z,19.20
2017-11-12T00:10:32.426Z,20.03
2017-11-12T00:12:59.298Z,20.20
2017-11-12T00:15:25.901Z,19.50
2017-11-12T00:17:52.469Z,19.30
2017-11-12T00:20:19.054Z,20.00
2017-11-12T00:22:45.643Z,20.67
2017-11-12T00:25:12.232Z,21.20
2017-11-12T00:27:38.829Z,19.93
2017-11-12T00:30:05.413Z,20.80
2017-11-12T00:32:31.987Z,21.47
2017-11-12T00:34:58.579Z,20.83
2017-11-12T00:37:25.161Z,21.00
2017-11-12T00:39:51.748Z,19.90
2017-11-12T00:42:18.329Z,20.80
2017-11-12T00:44:44.927Z,20.00
2017-11-12T00:47:11.510Z,20.80
2017-11-12T00:49:38.111Z,19.67
2017-11-12T00:52:04.690Z,20.80
2017-11-12T00:54:31.274Z,20.17
2017-11-12T00:56:57.862Z,20.70
2017-11-12T00:59:24.448Z,19.80
2017-11-12T01:01:51.042Z,18.80
2017-11-12T01:04:17.630Z,19.77
2017-11-12T01:06:44.221Z,20.60
2017-11-12T01:09:10.809Z,20.20
2017-11-12T01:11:37.398Z,20.83
2017-11-12T01:14:03.984Z,18.27
2017-11-12T01:16:30.561Z,19.17
2017-11-12T01:18:57.146Z,18.73
2017-11-12T01:21:23.727Z,18.83
2017-11-12T01:23:50.341Z,18.13
2017-11-12T01:26:16.906Z,19.43
2017-11-12T01:28:43.492Z,19.80
2017-11-12T01:31:10.082Z,18.37
2017-11-12T01:33:36.662Z,20.90
2017-11-12T01:36:03.250Z,20.37
2017-11-12T01:38:29.834Z,23.00
2017-11-12T01:40:56.445Z,22.20
2017-11-12T01:43:23.012Z,22.20
2017-11-12T01:45:49.624Z,22.50
2017-11-12T01:48:16.217Z,22.67
2017-11-12T01:50:42.794Z,21.87
2017-11-12T01:53:09.383Z,21.30
2017-11-12T01:55:35.978Z,23.50
2017-11-12T01:58:02.582Z,23.10
2017-11-12T02:00:29.167Z,22.87
2017-11-12T02:02:55.798Z,22.53
2017-11-12T02:05:22.386Z,22.87
2017-11-12T02:07:48.990Z,23.50
2017-11-12T02:10:15.575Z,25.90
2017-11-12T02:12:42.158Z,25.07
2017-11-12T02:15:08.749Z,26.23
2017-11-12T02:17:35.355Z,26.80
2017-11-12T02:20:01.941Z,26.10
2017-11-12T02:22:28.540Z,25.63
2017-11-12T02:24:55.123Z,26.80
2017-11-12T02:27:21.718Z,27.10
2017-11-12T02:29:48.315Z,25.80
2017-11-12T02:32:14.917Z,26.27
2017-11-12T02:34:41.498Z,25.97
2017-11-12T02:37:08.095Z,26.20
2017-11-12T02:39:34.691Z,25.23
2017-11-12T02:42:01.283Z,24.17
2017-11-12T02:44:27.867Z,25.73
2017-11-12T02:46:54.451Z,25.40
2017-11-12T02:49:21.031Z,25.00
2017-11-12T02:51:47.623Z,24.57
2017-11-12T02:54:14.211Z,24.30
2017-11-12T02:56:40.804Z,25.00
2017-11-12T02:59:07.394Z,25.20
2017-11-12T03:01:33.969Z,23.33
2017-11-12T03:04:00.562Z,23.20
2017-11-12T03:06:27.142Z,24.00
2017-11-12T03:08:53.755Z,23.00
2017-11-12T03:11:20.330Z,22.87
2017-11-12T03:13:46.906Z,23.70
2017-11-12T03:16:13.494Z,22.90
2017-11-12T03:18:40.085Z,22.30
2017-11-12T03:21:06.666Z,21.70
2017-11-12T03:23:33.248Z,22.00
2017-11-12T03:25:59.845Z,22.33
2017-11-12T03:28:26.431Z,22.70
2017-11-12T03:30:53.030Z,22.03
2017-11-12T03:33:19.619Z,24.50
2017-11-12T03:35:46.198Z,22.37
2017-11-12T03:38:12.787Z,23.70
2017-11-12T03:40:39.367Z,24.00
2017-11-12T03:43:05.969Z,22.37
2017-11-12T03:45:32.546Z,21.50
2017-11-12T03:47:59.146Z,21.57
2017-11-12T03:50:25.726Z,20.80
2017-11-12T03:52:52.310Z,22.33
2017-11-12T03:55:18.894Z,22.00
2017-11-12T03:57:45.479Z,22.63
2017-11-12T04:00:12.061Z,21.10
2017-11-12T04:02:38.642Z,21.37
2017-11-12T04:05:05.246Z,19.70
2017-11-12T04:07:31.831Z,20.70
2017-11-12T04:09:58.410Z,19.60
2017-11-12T04:12:24.999Z,20.70
2017-11-12T04:14:51.584Z,19.63
2017-11-12T04:17:18.174Z,19.03
2017-11-12T04:19:44.741Z,18.90
2017-11-12T04:22:11.424Z,18.27
2017-11-12T04:24:37.986Z,20.33
2017-11-12T04:27:04.588Z,19.00
2017-11-12T04:29:31.170Z,18.83
2017-11-12T04:31:57.751Z,18.07
2017-11-12T04:34:24.338Z,18.47
2017-11-12T04:36:50.918Z,16.60
2017-11-12T04:39:17.567Z,16.57
2017-11-12T04:41:44.142Z,18.20
2017-11-12T04:44:10.734Z,16.80
2017-11-12T04:46:37.317Z,17.10
2017-11-12T04:49:03.895Z,16.53
2017-11-12T04:51:30.486Z,16.50
2017-11-12T04:53:57.066Z,17.40
2017-11-12T04:56:23.674Z,17.50
2017-11-12T04:58:50.254Z,16.97
2017-11-12T05:01:16.845Z,17.03
2017-11-12T05:03:43.426Z,17.53
2017-11-12T05:06:10.025Z,16.30
2017-11-12T05:08:36.603Z,15.97
2017-11-12T05:11:03.191Z,17.33
2017-11-12T05:13:29.786Z,15.80
2017-11-12T05:15:56.366Z,17.10
2017-11-12T05:18:22.978Z,16.60
2017-11-12T05:20:49.554Z,16.93
2017-11-12T05:23:16.157Z,16.97
2017-11-12T05:25:42.722Z,16.17
2017-11-12T05:28:09.306Z,16.03
2017-11-12T05:30:35.890Z,16.03
2017-11-12T05:33:02.470Z,14.87
2017-11-12T05:35:29.114Z,15.10
2017-11-12T05:37:55.698Z,15.07
2017-11-12T05:40:22.302Z,15.20
2017-11-12T05:42:48.882Z,15.00
2017-11-12T05:45:15.463Z,14.73
2017-11-12T05:47:42.054Z,14.13
2017-11-12T05:50:08.639Z,15.60
2017-11-12T05:52:35.231Z,15.00
2017-11-12T05:55:01.814Z,14.80
2017-11-12T05:57:28.406Z,14.77
2017-11-12T05:59:54.985Z,14.20
2017-11-12T06:02:21.587Z,14.47
2017-11-12T06:04:48.171Z,16.33
2017-11-12T06:07:14.757Z,14.83
2017-11-12T06:09:41.352Z,13.60
2017-11-12T06:12:07.930Z,13.97
2017-11-12T06:14:34.525Z,13.93
2017-11-12T06:17:01.106Z,13.40
2017-11-12T06:19:27.703Z,13.10
2017-11-12T06:21:54.294Z,12.87
2017-11-12T06:24:20.871Z,13.60
2017-11-12T06:26:47.468Z,14.03
2017-11-12T06:29:14.042Z,14.80
2017-11-12T06:31:40.631Z,14.30
2017-11-12T06:34:07.211Z,13.47
2017-11-12T06:36:33.806Z,14.77
2017-11-12T06:39:00.395Z,13.80
2017-11-12T06:41:26.993Z,13.03
2017-11-12T06:43:53.583Z,13.63
2017-11-12T06:46:20.163Z,12.87
2017-11-12T06:48:46.750Z,13.17
2017-11-12T06:51:13.331Z,12.50
2017-11-12T06:53:39.925Z,12.83
2017-11-12T06:56:06.506Z,12.40
2017-11-12T06:58:33.094Z,13.00
2017-11-12T07:00:59.686Z,13.13
2017-11-12T07:03:26.279Z,12.27
2017-11-12T07:05:52.862Z,11.67
2017-11-12T07:08:19.438Z,11.80
2017-11-12T07:10:46.027Z,11.00
2017-11-12T07:13:12.607Z,10.70
2017-11-12T07:15:39.206Z,11.27
2017-11-12T07:18:05.787Z,10.43
2017-11-12T07:20:32.370Z,10.00
2017-11-12T07:22:58.962Z,9.90
2017-11-12T07:25:25.543Z,10.73
2017-11-12T07:27:52.130Z,10.57
2017-11-12T07:30:18.718Z,10.10
2017-11-12T07:32:45.298Z,10.60
2017-11-12T07:35:11.873Z,9.50
2017-11-12T07:37:38.470Z,10.33
2017-11-12T07:40:05.198Z,10.27
2017-11-12T07:42:31.762Z,9.67
2017-11-12T07:44:58.351Z,10.57
2017-11-12T07:47:24.930Z,11.00
2017-11-12T07:49:51.514Z,10.53
2017-11-12T07:52:18.094Z,9.40
2017-11-12T07:54:44.683Z,10.33
2017-11-12T07:57:11.267Z,10.50
2017-11-12T07:59:37.882Z,10.40
2017-11-12T08:02:04.473Z,10.30
2017-11-12T08:04:31.041Z,11.20
2017-11-12T08:06:57.630Z,9.87
2017-11-12T08:09:24.207Z,10.40
2017-11-12T08:11:50.790Z,9.17
2017-11-12T08:14:17.375Z,10.50
2017-11-12T08:16:43.967Z,11.17
2017-11-12T08:19:10.551Z,12.00
2017-11-12T08:21:37.159Z,10.50
2017-11-12T08:24:03.734Z,11.20
2017-11-12T08:26:30.324Z,11.00
2017-11-12T08:28:56.902Z,11.50
2017-11-12T08:31:23.498Z,11.50
2017-11-12T08:33:50.073Z,11.13
2017-11-12T08:36:16.658Z,12.93
2017-11-12T08:38:43.250Z,12.10
2017-11-12T08:41:09.832Z,12.67
2017-11-12T08:43:36.439Z,12.07
2017-11-12T08:46:03.032Z,13.30
2017-11-12T08:48:29.597Z,15.30
2017-11-12T08:50:56.191Z,16.40
2017-11-12T08:53:22.774Z,17.27
2017-11-12T08:55:49.361Z,16.00
2017-11-12T08:58:15.943Z,14.93
2017-11-12T09:00:42.541Z,12.97
2017-11-12T09:03:09.121Z,12.90
2017-11-12T09:05:35.704Z,13.40
2017-11-12T09:08:02.294Z,13.07
2017-11-12T09:10:28.878Z,12.80
2017-11-12T09:12:55.471Z,12.40
2017-11-12T09:15:22.051Z,11.83
2017-11-12T09:17:48.654Z,12.50
2017-11-12T09:20:15.238Z,12.93
2017-11-12T09:22:41.825Z,12.70
2017-11-12T09:25:08.413Z,13.10
2017-11-12T09:27:34.994Z,11.73
2017-11-12T09:30:01.587Z,12.40
2017-11-12T09:32:28.162Z,13.10
2017-11-12T09:34:54.757Z,11.70
2017-11-12T09:37:21.334Z,12.93
2017-11-12T09:39:47.934Z,12.03
2017-11-12T09:42:14.523Z,11.90
2017-11-12T09:44:41.215Z,11.33
2017-11-12T09:47:07.801Z,12.10
2017-11-12T09:49:34.402Z,11.80
2017-11-12T09:52:01.158Z,11.90
2017-11-12T09:54:27.804Z,12.40
2017-11-12T09:56:54.405Z,14.40
2017-11-12T09:59:21.006Z,13.83
2017-11-12T10:01:47.797Z,12.90
2017-11-12T10:04:14.374Z,11.33
2017-11-12T10:06:41.139Z,10.80
2017-11-12T10:09:08.181Z,9.93
2017-11-12T10:11:34.957Z,9.83
2017-11-12T10:14:01.545Z,9.30
2017-11-12T10:16:28.146Z,9.33
2017-11-12T10:18:54.732Z,7.53
2017-11-12T10:21:21.318Z,7.53
2017-11-12T10:23:47.906Z,8.87
2017-11-12T10:26:14.486Z,8.03
2017-11-12T10:28:41.102Z,9.33
2017-11-12T10:31:07.670Z,9.77
2017-11-12T10:33:34.274Z,9.63
2017-11-12T10:36:00.874Z,8.63
2017-11-12T10:38:27.454Z,8.97
2017-11-12T10:40:54.047Z,8.63
2017-11-12T10:43:20.623Z,6.83
2017-11-12T10:45:47.245Z,7.10
2017-11-12T10:48:14.043Z,6.20
2017-11-12T10:50:40.972Z,8.50
2017-11-12T10:53:09.034Z,9.27
2017-11-12T10:55:35.627Z,7.50
2017-11-12T10:58:02.221Z,6.80
2017-11-12T11:00:28.801Z,7.37
2017-11-12T11:02:55.379Z,7.60
2017-11-12T11:05:21.958Z,8.43
2017-11-12T11:07:48.643Z,7.57
2017-11-12T11:10:15.223Z,8.10
2017-11-12T11:12:41.801Z,8.37
2017-11-12T11:15:08.390Z,6.67
2017-11-12T11:17:34.974Z,6.97
2017-11-12T11:20:01.554Z,6.63
2017-11-12T11:22:28.237Z,6.80
2017-11-12T11:24:54.798Z,9.17
2017-11-12T11:27:21.391Z,10.00
2017-11-12T11:29:47.965Z,11.53
2017-11-12T11:32:14.845Z,11.63
2017-11-12T11:34:41.419Z,11.47
2017-11-12T11:37:07.998Z,9.57
2017-11-12T11:39:34.592Z,10.60
2017-11-12T11:42:01.173Z,8.67
2017-11-12T11:44:27.758Z,8.27
2017-11-12T11:46:54.350Z,8.53
2017-11-12T11:49:20.926Z,8.40
2017-11-12T11:51:47.501Z,8.33
2017-11-12T11:54:14.100Z,8.07
2017-11-12T11:56:40.693Z,7.33
2017-11-12T11:59:07.314Z,8.70
2017-11-12T12:01:33.922Z,8.00
2017-11-12T12:04:00.505Z,7.80
2017-11-12T12:06:27.092Z,7.80
2017-11-12T12:08:53.657Z,6.50
2017-11-12T12:11:20.246Z,7.00
2017-11-12T12:13:46.823Z,6.87
2017-11-12T12:16:13.410Z,7.33
2017-11-12T12:18:40.007Z,7.10
2017-11-12T12:21:06.590Z,6.30
2017-11-12T12:23:34.045Z,6.90
2017-11-12T12:26:00.642Z,7.07
2017-11-12T12:28:27.314Z,7.43
2017-11-12T12:30:54.397Z,7.43
2017-11-12T12:33:21.053Z,7.20
2017-11-12T12:35:47.670Z,7.80
2017-11-12T12:38:14.242Z,7.00
2017-11-12T12:40:40.853Z,7.43
2017-11-12T12:43:07.442Z,7.00
2017-11-12T12:45:34.060Z,7.30
2017-11-12T12:48:00.639Z,12.67
2017-11-12T12:50:27.217Z,20.20
2017-11-12T12:52:53.806Z,9.60
2017-11-12T12:55:20.387Z,8.77
2017-11-12T12:57:46.977Z,8.23
2017-11-12T13:00:13.550Z,7.77
2017-11-12T13:02:40.147Z,8.60
2017-11-12T13:05:06.726Z,9.13
2017-11-12T13:07:33.302Z,8.73
2017-11-12T13:09:59.890Z,10.20
2017-11-12T13:12:26.470Z,9.60
2017-11-12T13:14:53.440Z,10.00
2017-11-12T13:17:20.097Z,11.70
2017-11-12T13:19:46.832Z,10.97
2017-11-12T13:22:13.422Z,12.10
2017-11-12T13:24:39.995Z,12.13
2017-11-12T13:27:06.593Z,11.50
2017-11-12T13:29:33.196Z,12.40
2017-11-12T13:31:59.777Z,12.27
2017-11-12T13:34:26.375Z,12.60
2017-11-12T13:36:53.066Z,12.27
2017-11-12T13:39:19.638Z,11.93
2017-11-12T13:41:46.230Z,11.87
2017-11-12T13:44:12.827Z,11.77
2017-11-12T13:46:39.419Z,12.03
2017-11-12T13:49:06.090Z,11.37
2017-11-12T13:51:32.674Z,11.70
2017-11-12T13:54:00.186Z,11.93
2017-11-12T13:56:26.765Z,12.13
2017-11-12T13:58:53.353Z,12.67
2017-11-12T14:01:19.944Z,11.57
2017-11-12T14:03:46.521Z,11.27
2017-11-12T14:06:13.123Z,11.77
2017-11-12T14:08:39.699Z,11.00
2017-11-12T14:11:06.300Z,11.20
2017-11-12T14:13:33.141Z,12.17
2017-11-12T14:15:59.718Z,12.00
2017-11-12T14:18:26.309Z,11.93
2017-11-12T14:20:52.912Z,11.77
2017-11-12T14:23:19.486Z,12.80
2017-11-12T14:25:46.085Z,10.17
2017-11-12T14:28:12.678Z,9.80
2017-11-12T14:30:39.253Z,9.07
2017-11-12T14:33:05.892Z,9.63
2017-11-12T14:35:32.494Z,10.73
2017-11-12T14:37:59.078Z,11.30
2017-11-12T14:40:25.665Z,11.07
2017-11-12T14:42:52.246Z,6.80
2017-11-12T14:45:18.834Z,9.57
2017-11-12T14:47:45.410Z,8.93
2017-11-12T14:50:11.991Z,8.30
2017-11-12T14:52:38.570Z,7.00
2017-11-12T14:55:05.228Z,6.13
2017-11-12T14:57:31.808Z,6.20
2017-11-12T14:59:58.366Z,6.67
2017-11-12T15:02:24.954Z,5.03
2017-11-12T15:04:51.531Z,7.17
2017-11-12T15:07:18.108Z,7.57
2017-11-12T15:09:44.683Z,7.30
2017-11-12T15:12:11.263Z,7.30
2017-11-12T15:14:37.843Z,6.67
2017-11-12T15:17:04.498Z,6.93
2017-11-12T15:19:31.061Z,7.00
2017-11-12T15:21:57.638Z,6.83
2017-11-12T15:24:24.232Z,6.50
2017-11-12T15:26:50.809Z,6.70
2017-11-12T15:29:17.416Z,7.43
2017-11-12T15:31:43.986Z,7.73
2017-11-12T15:34:10.570Z,7.00
2017-11-12T15:36:37.146Z,7.40
2017-11-12T15:39:03.736Z,7.73
2017-11-12T15:41:30.309Z,6.50
2017-11-12T15:43:56.893Z,6.93
2017-11-12T15:46:23.482Z,7.37
2017-11-12T15:48:50.057Z,7.87
2017-11-12T15:51:16.682Z,6.60
2017-11-12T15:53:43.247Z,7.57
2017-11-12T15:56:09.835Z,7.67
2017-11-12T15:58:36.414Z,8.57
2017-11-12T16:01:02.995Z,9.33
2017-11-12T16:03:29.580Z,10.50
2017-11-12T16:05:56.158Z,9.30
2017-11-12T16:08:22.754Z,9.10
2017-11-12T16:10:49.333Z,10.30
2017-11-12T16:13:15.943Z,9.40
2017-11-12T16:15:42.510Z,10.70
2017-11-12T16:18:09.103Z,11.10
2017-11-12T16:20:35.690Z,10.73
2017-11-12T16:23:02.270Z,10.93
2017-11-12T16:25:28.854Z,10.63
2017-11-12T16:27:55.439Z,10.50
2017-11-12T16:30:22.030Z,10.60
2017-11-12T16:32:48.614Z,11.33
2017-11-12T16:35:15.210Z,11.47
2017-11-12T16:37:41.812Z,11.17
2017-11-12T16:40:08.386Z,11.60
2017-11-12T16:42:34.987Z,10.50
2017-11-12T16:45:01.568Z,10.80
2017-11-12T16:47:28.171Z,10.67
2017-11-12T16:49:54.761Z,10.30
2017-11-12T16:52:21.338Z,9.90
2017-11-12T16:54:47.942Z,10.50
2017-11-12T16:57:14.523Z,9.57
2017-11-12T16:59:41.111Z,8.77
2017-11-12T17:02:07.694Z,9.23
2017-11-12T17:04:34.297Z,8.33
2017-11-12T17:07:00.891Z,9.33
2017-11-12T17:09:27.475Z,8.73
2017-11-12T17:11:54.062Z,8.30
2017-11-12T17:14:20.638Z,7.77
2017-11-12T17:16:47.223Z,7.60
2017-11-12T17:19:13.798Z,8.30
2017-11-12T17:21:40.374Z,7.93
2017-11-12T17:24:06.998Z,7.40
2017-11-12T17:26:33.581Z,7.70
2017-11-12T17:29:00.196Z,7.43
2017-11-12T17:31:28.502Z,7.43
2017-11-12T17:33:56.039Z,8.10
2017-11-12T17:36:22.629Z,7.73
2017-11-12T17:38:49.197Z,7.80
2017-11-12T17:41:15.791Z,9.23
2017-11-12T17:43:42.397Z,7.80
2017-11-12T17:46:08.990Z,7.87
2017-11-12T17:48:35.618Z,7.63
2017-11-12T17:51:02.196Z,9.23
2017-11-12T17:53:28.778Z,8.60
2017-11-12T17:55:55.370Z,9.40
2017-11-12T17:58:21.946Z,9.17
2017-11-12T18:00:48.523Z,8.00
2017-11-12T18:03:15.160Z,7.20
2017-11-12T18:05:41.730Z,7.80
2017-11-12T18:08:08.432Z,8.10
2017-11-12T18:10:34.995Z,7.93
2017-11-12T18:13:01.573Z,9.57
2017-11-12T18:15:28.159Z,8.80
2017-11-12T18:17:54.742Z,9.27
2017-11-12T18:20:21.348Z,9.17
2017-11-12T18:22:47.927Z,8.70
2017-11-12T18:25:14.501Z,8.37
2017-11-12T18:27:41.089Z,8.97
2017-11-12T18:30:07.670Z,9.00
2017-11-12T18:32:34.271Z,8.60
2017-11-12T18:35:00.843Z,9.07
2017-11-12T18:37:27.437Z,9.30
2017-11-12T18:39:54.010Z,8.83
2017-11-12T18:42:20.601Z,9.63
2017-11-12T18:44:47.187Z,9.50
2017-11-12T18:47:13.763Z,9.07
2017-11-12T18:49:40.360Z,10.63
2017-11-12T18:52:06.978Z,10.00
2017-11-12T18:54:34.197Z,9.40
2017-11-12T18:57:08.586Z,9.47
2017-11-12T18:59:40.186Z,9.57
2017-11-12T19:02:13.284Z,8.70
2017-11-12T19:04:41.658Z,8.80
2017-11-12T19:07:13.889Z,8.53
2017-11-12T19:09:40.462Z,9.50
2017-11-12T19:12:08.706Z,8.67
2017-11-12T19:14:35.290Z,9.20
2017-11-12T19:17:05.729Z,9.00
2017-11-12T19:19:43.122Z,8.60
2017-11-12T19:22:13.239Z,8.40
2017-11-12T19:24:41.647Z,9.50
2017-11-12T19:27:18.134Z,9.70
2017-11-12T19:29:45.628Z,9.10
2017-11-12T19:32:12.235Z,10.20
2017-11-12T19:34:38.826Z,8.77
2017-11-12T19:37:05.424Z,9.30
2017-11-12T19:39:32.008Z,9.27
2017-11-12T19:41:58.596Z,9.90
2017-11-12T19:44:25.186Z,9.93
2017-11-12T19:46:52.770Z,9.30
2017-11-12T19:49:19.352Z,9.60
2017-11-12T19:51:45.937Z,9.50
2017-11-12T19:54:12.518Z,9.40
2017-11-12T19:56:39.115Z,10.57
2017-11-12T19:59:05.754Z,10.03
2017-11-12T20:01:32.355Z,11.20
2017-11-12T20:03:58.965Z,10.17
2017-11-12T20:06:25.558Z,10.50
2017-11-12T20:08:52.165Z,9.30
2017-11-12T20:11:18.745Z,10.30
2017-11-12T20:13:45.341Z,9.60
2017-11-12T20:16:11.917Z,9.50
2017-11-12T20:18:38.523Z,9.77
2017-11-12T20:21:05.119Z,10.27
2017-11-12T20:23:31.695Z,9.80
2017-11-12T20:25:58.279Z,9.17
2017-11-12T20:28:24.856Z,8.80
2017-11-12T20:30:51.485Z,9.27
2017-11-12T20:33:18.087Z,10.17
2017-11-12T20:35:44.667Z,10.57
2017-11-12T20:38:11.254Z,10.50
2017-11-12T20:40:37.880Z,10.80
2017-11-12T20:43:04.474Z,11.10
2017-11-12T20:45:31.057Z,10.60
2017-11-12T20:47:57.651Z,11.20
2017-11-12T20:50:24.229Z,11.20
2017-11-12T20:52:50.819Z,10.10
2017-11-12T20:55:17.395Z,9.70
2017-11-12T20:57:43.978Z,10.63
2017-11-12T21:00:10.566Z,10.13
2017-11-12T21:02:38.116Z,11.53
2017-11-12T21:05:04.725Z,10.33
2017-11-12T21:07:31.301Z,9.90
2017-11-12T21:09:57.880Z,10.80
2017-11-12T21:12:24.474Z,10.53
2017-11-12T21:14:51.058Z,11.20
2017-11-12T21:17:17.642Z,10.27
2017-11-12T21:19:46.959Z,11.40
2017-11-12T21:22:17.210Z,12.23
2017-11-12T21:24:43.790Z,12.43
2017-11-12T21:27:12.838Z,12.47
2017-11-12T21:29:42.019Z,13.27
2017-11-12T21:32:09.542Z,13.83
2017-11-12T21:34:39.850Z,13.60
2017-11-12T21:37:06.518Z,13.93
2017-11-12T21:39:33.291Z,14.40
2017-11-12T21:41:59.871Z,14.00
2017-11-12T21:44:26.470Z,14.67
2017-11-12T21:46:53.059Z,14.47
2017-11-12T21:49:19.646Z,13.97
2017-11-12T21:54:19.383Z,14.13
2017-11-12T21:56:45.979Z,15.80
2017-11-12T21:59:12.596Z,14.87
2017-11-12T22:01:39.150Z,14.40
2017-11-12T22:04:05.740Z,15.47
2017-11-12T22:06:32.336Z,14.13
2017-11-12T22:08:58.923Z,16.03
2017-11-12T22:11:25.516Z,14.97
2017-11-12T22:13:52.100Z,14.00
2017-11-12T22:16:18.695Z,14.57
2017-11-12T22:18:45.278Z,14.33
2017-11-12T22:21:11.871Z,14.57
2017-11-12T22:23:38.470Z,14.90
2017-11-12T22:26:05.062Z,14.73
2017-11-12T22:28:31.660Z,15.30
2017-11-12T22:30:58.242Z,16.67
2017-11-12T22:33:24.823Z,17.03
2017-11-12T22:35:51.416Z,16.70
2017-11-12T22:38:17.999Z,16.30
2017-11-12T22:40:44.617Z,17.60
2017-11-12T22:43:11.211Z,17.57
2017-11-12T22:45:37.794Z,17.67
2017-11-12T22:48:04.395Z,18.00
2017-11-12T22:50:30.979Z,18.07
2017-11-12T22:52:57.569Z,17.73
2017-11-12T22:55:24.152Z,17.43
2017-11-12T22:57:50.766Z,17.63
2017-11-12T23:00:17.342Z,17.13
2017-11-12T23:02:43.922Z,18.50
2017-11-12T23:05:10.526Z,17.30
2017-11-12T23:07:37.098Z,16.70
2017-11-12T23:10:03.691Z,19.90
2017-11-12T23:12:30.282Z,18.70
2017-11-12T23:14:56.872Z,17.60
2017-11-12T23:17:23.459Z,16.80
2017-11-12T23:19:50.041Z,17.50
2017-11-12T23:22:16.630Z,16.47
2017-11-12T23:24:43.210Z,16.70
2017-11-12T23:27:09.803Z,16.53
2017-11-12T23:29:36.388Z,17.77
2017-11-12T23:32:03.002Z,17.00
2017-11-12T23:34:29.591Z,16.67
2017-11-12T23:36:56.189Z,18.33
2017-11-12T23:39:22.757Z,17.83
2017-11-12T23:41:49.403Z,18.20
2017-11-12T23:44:16.140Z,16.70
2017-11-12T23:46:42.843Z,17.80
2017-11-12T23:49:09.421Z,18.40
2017-11-12T23:51:35.998Z,17.80
2017-11-12T23:54:02.586Z,17.37
2017-11-12T23:56:29.171Z,16.90
2017-11-12T23:58:55.762Z,16.30
